createdAt,value
2023-05-02T00:03:34.000Z,9.7
2023-05-02T00:09:53.959Z,9.7
2023-05-02T00:16:16.963Z,7.4
2023-05-02T00:22:36.931Z,7.4
2023-05-02T00:28:59.989Z,10.7
2023-05-02T00:35:20.137Z,10.7
2023-05-02T00:41:43.016Z,8.1
2023-05-02T00:48:02.932Z,8.1
2023-05-02T00:54:25.994Z,13.5
2023-05-02T01:00:45.926Z,13.5
2023-05-02T01:07:08.986Z,12.2
2023-05-02T01:13:28.913Z,12.2
2023-05-02T01:19:51.934Z,13.7
2023-05-02T01:26:11.945Z,13.7
2023-05-02T01:32:35.008Z,15.2
2023-05-02T01:38:54.890Z,15.2
2023-05-02T01:45:17.935Z,25.1
2023-05-02T01:51:37.946Z,25.1
2023-05-02T01:58:01.026Z,25.3
2023-05-02T02:04:20.963Z,25.3
2023-05-02T02:10:44.007Z,18.6
2023-05-02T02:17:04.040Z,18.6
2023-05-02T02:23:26.962Z,22.6
2023-05-02T02:29:47.117Z,22.6
2023-05-02T02:36:10.014Z,50.2
2023-05-02T02:42:29.922Z,50.2
2023-05-02T02:48:52.987Z,32.4
2023-05-02T02:55:12.892Z,32.4
2023-05-02T03:01:36.076Z,35.4
2023-05-02T03:07:55.923Z,35.4
2023-05-02T03:14:18.941Z,39.2
2023-05-02T03:20:38.920Z,39.2
2023-05-02T03:36:31.860Z,35.2
2023-05-02T03:42:51.912Z,35.2
2023-05-02T03:49:15.021Z,40.2
2023-05-02T03:55:34.992Z,40.2
2023-05-02T04:01:57.998Z,30.2
2023-05-02T04:08:17.927Z,30.2
2023-05-02T04:14:40.951Z,24.5
2023-05-02T04:21:01.113Z,24.5
2023-05-02T04:27:23.905Z,35.3
2023-05-02T04:33:43.962Z,35.3
2023-05-02T04:40:06.916Z,24.1
2023-05-02T04:46:26.959Z,24.1
2023-05-02T04:52:50.062Z,33.5
2023-05-02T04:59:09.935Z,33.5
2023-05-02T05:05:33.035Z,23.2
2023-05-02T05:11:53.018Z,23.2
2023-05-02T05:18:16.040Z,35.3
2023-05-02T05:24:35.977Z,35.3
2023-05-02T05:30:58.951Z,53.4
2023-05-02T05:37:19.019Z,53.4
2023-05-02T05:43:41.968Z,34.5
2023-05-02T05:50:02.261Z,34.5
2023-05-02T05:56:25.001Z,44.8
2023-05-02T06:02:44.936Z,44.8
2023-05-02T06:09:08.082Z,26.9
2023-05-02T06:15:27.928Z,26.9
2023-05-02T06:21:50.989Z,31.4
2023-05-02T06:28:10.957Z,31.4
2023-05-02T06:34:33.987Z,36.7
2023-05-02T06:40:54.114Z,36.7
2023-05-02T06:47:17.029Z,20.5
2023-05-02T06:53:36.990Z,20.5
2023-05-02T07:00:00.102Z,26.1
2023-05-02T07:06:19.984Z,26.1
2023-05-02T07:12:42.924Z,17.8
2023-05-02T07:19:02.923Z,17.8
2023-05-02T07:25:25.992Z,20.6
2023-05-02T07:31:45.933Z,20.6
2023-05-02T07:38:08.922Z,24.5
2023-05-02T07:44:28.954Z,24.5
2023-05-02T07:50:51.947Z,14.4
2023-05-02T07:57:11.967Z,14.4
2023-05-02T08:03:35.145Z,10.5
2023-05-02T08:09:55.183Z,10.5
2023-05-02T08:16:18.140Z,16.8
2023-05-02T08:22:38.277Z,16.8
2023-05-02T08:29:00.964Z,26.9
2023-05-02T08:35:20.907Z,26.9
2023-05-02T08:58:27.142Z,15.8
2023-05-02T09:04:50.193Z,15.8
2023-05-02T09:11:12.053Z,15.8
2023-05-02T09:17:35.961Z,4.4
2023-05-02T09:23:56.065Z,4.4
2023-05-02T09:30:18.978Z,2.8
2023-05-02T09:36:38.961Z,2.8
2023-05-02T09:43:02.226Z,4.4
2023-05-02T09:49:21.917Z,4.4
2023-05-02T09:55:44.981Z,7.5
2023-05-02T10:02:05.176Z,7.5
2023-05-02T10:08:27.962Z,4.9
2023-05-02T10:14:47.984Z,4.9
2023-05-02T10:21:10.916Z,7.9
2023-05-02T10:27:30.981Z,7.9
2023-05-02T10:33:53.976Z,1.3
2023-05-02T10:40:14.010Z,1.3
2023-05-02T10:46:36.961Z,2.9
2023-05-02T10:52:56.977Z,2.9
2023-05-02T10:59:20.017Z,5.7
2023-05-02T11:05:39.935Z,5.7
2023-05-02T11:12:03.097Z,4.7
2023-05-02T11:18:22.913Z,4.7
2023-05-02T11:24:45.973Z,3.3
2023-05-02T11:31:06.030Z,3.3
2023-05-02T11:37:29.860Z,11.6
2023-05-02T11:43:49.082Z,11.6
2023-05-02T11:50:11.973Z,6.2
2023-05-02T11:56:31.933Z,6.2
2023-05-02T12:02:55.021Z,24.9
2023-05-02T12:09:15.003Z,24.9
2023-05-02T12:15:38.010Z,4.5
2023-05-02T12:21:57.928Z,4.5
2023-05-02T12:28:21.059Z,16.9
2023-05-02T12:34:40.929Z,16.9
2023-05-02T12:41:03.938Z,5.5
2023-05-02T12:47:24.261Z,5.5
2023-05-02T12:53:47.172Z,5.4
2023-05-02T13:00:06.966Z,5.4
2023-05-02T13:06:30.054Z,7.1
2023-05-02T13:12:49.947Z,7.1
2023-05-02T13:19:13.112Z,8.2
2023-05-02T13:25:32.932Z,8.2
2023-05-02T13:31:55.976Z,5.1
2023-05-02T13:38:15.926Z,5.1
2023-05-02T13:44:39.001Z,2.7
2023-05-02T13:50:58.950Z,2.7
2023-05-02T13:57:21.923Z,3
2023-05-02T14:20:26.456Z,14.3
2023-05-02T14:26:46.166Z,14.3
2023-05-02T14:33:09.022Z,14.3
2023-05-02T14:39:29.012Z,14.3
2023-05-02T14:45:51.976Z,3.6
2023-05-02T14:52:11.985Z,3.6
2023-05-02T14:58:34.939Z,6.1
2023-05-02T15:04:55.146Z,6.1
2023-05-02T15:11:18.012Z,4.4
2023-05-02T15:17:38.003Z,4.4
2023-05-02T15:24:00.914Z,2.4
2023-05-02T15:30:22.720Z,2.4
2023-05-02T15:36:43.946Z,5.6
2023-05-02T15:43:03.903Z,5.6
2023-05-02T15:49:27.004Z,4.5
2023-05-02T15:55:46.965Z,4.5
2023-05-02T16:02:09.896Z,7.6
2023-05-02T16:08:29.962Z,7.6
2023-05-02T16:14:52.932Z,1.6
2023-05-02T16:21:12.991Z,1.6
2023-05-02T16:27:35.915Z,3.7
2023-05-02T16:33:55.941Z,3.7
2023-05-02T16:40:18.956Z,7.2
2023-05-02T16:46:38.918Z,7.2
2023-05-02T16:53:02.105Z,17.6
2023-05-02T16:59:21.909Z,17.6
2023-05-02T17:05:44.903Z,5.3
2023-05-02T17:12:04.960Z,5.3
2023-05-02T17:18:27.921Z,1.6
2023-05-02T17:24:47.941Z,1.6
2023-05-02T17:31:10.929Z,2
2023-05-02T17:37:30.895Z,2
2023-05-02T17:43:54.042Z,2.1
2023-05-02T17:50:13.942Z,2.1
2023-05-02T17:56:36.949Z,3.3
2023-05-02T18:02:57.049Z,3.3
2023-05-02T18:09:20.139Z,2.7
2023-05-02T18:15:40.005Z,2.7
2023-05-02T18:22:02.963Z,3.3
2023-05-02T18:28:23.050Z,3.3
2023-05-02T18:34:45.935Z,4.5
2023-05-02T18:41:05.905Z,4.5
2023-05-02T18:47:29.010Z,1.3
2023-05-02T18:53:49.005Z,1.3
2023-05-02T19:00:11.985Z,6.9
2023-05-02T19:06:32.050Z,6.9
2023-05-02T19:12:54.905Z,1
2023-05-02T19:19:14.949Z,1
2023-05-02T19:25:37.929Z,1.6
2023-05-02T19:31:57.939Z,1.6
2023-05-02T19:47:49.887Z,1.3
2023-05-02T19:54:09.896Z,1.3
2023-05-02T20:00:32.889Z,8.9
2023-05-02T20:06:52.962Z,8.9
2023-05-02T20:13:15.947Z,1.6
2023-05-02T20:19:35.922Z,1.6
2023-05-02T20:25:58.945Z,2.8
2023-05-02T20:32:19.027Z,2.8
2023-05-02T20:38:41.968Z,3
2023-05-02T20:45:01.902Z,3
2023-05-02T20:51:25.018Z,24.8
2023-05-02T20:57:44.922Z,24.8
2023-05-02T21:04:08.022Z,1.9
2023-05-02T21:10:28.031Z,1.9
2023-05-02T21:16:50.937Z,8.9
2023-05-02T21:23:11.237Z,8.9
2023-05-02T21:29:33.913Z,12.7
2023-05-02T21:35:53.917Z,12.7
2023-05-02T21:42:16.981Z,2.5
2023-05-02T21:48:36.952Z,2.5
2023-05-02T21:54:59.941Z,5.1
2023-05-02T22:01:20.076Z,5.1
2023-05-02T22:24:18.001Z,7.5
2023-05-02T22:30:37.869Z,7.5
2023-05-02T22:37:00.934Z,7.5
2023-05-02T22:43:21.049Z,7.5
2023-05-02T22:49:44.101Z,3.2
2023-05-02T22:56:04.118Z,3.2
2023-05-02T23:02:27.260Z,3.6
2023-05-02T23:08:46.991Z,3.6
2023-05-02T23:15:10.002Z,2.9
2023-05-02T23:21:29.988Z,2.9
2023-05-02T23:27:53.102Z,3.9
2023-05-02T23:34:13.044Z,3.9
2023-05-02T23:40:36.159Z,4.2
2023-05-02T23:46:56.083Z,4.2
2023-05-02T23:53:19.083Z,7.4
2023-05-02T23:59:39.057Z,7.4
